sensor_id;sensor_type;location;lat;lon;timestamp;pressure;altitude;pressure_sealevel;temperature;humidity
62800;BME280;48842;51.046;13.796;2023-02-14T00:01:42;102503.75;;;9.28;62.90
62800;BME280;48842;51.046;13.796;2023-02-14T00:04:07;102500.25;;;9.28;63.24
62800;BME280;48842;51.046;13.796;2023-02-14T00:06:33;102504.63;;;9.29;63.23
62800;BME280;48842;51.046;13.796;2023-02-14T00:09:06;102494.94;;;9.26;63.14
62800;BME280;48842;51.046;13.796;2023-02-14T00:11:31;102492.25;;;9.24;63.08
62800;BME280;48842;51.046;13.796;2023-02-14T00:13:57;102503.53;;;9.23;63.17
62800;BME280;48842;51.046;13.796;2023-02-14T00:16:42;102497.34;;;9.21;63.25
62800;BME280;48842;51.046;13.796;2023-02-14T00:19:10;102492.13;;;9.21;63.39
62800;BME280;48842;51.046;13.796;2023-02-14T00:21:37;102483.38;;;9.21;63.03
62800;BME280;48842;51.046;13.796;2023-02-14T00:24:04;102497.25;;;9.20;63.13
62800;BME280;48842;51.046;13.796;2023-02-14T00:26:30;102492.03;;;9.20;63.19
62800;BME280;48842;51.046;13.796;2023-02-14T00:28:55;102491.97;;;9.18;63.21
62800;BME280;48842;51.046;13.796;2023-02-14T00:31:20;102491.06;;;9.18;63.26
62800;BME280;48842;51.046;13.796;2023-02-14T00:33:46;102485.91;;;9.19;63.64
62800;BME280;48842;51.046;13.796;2023-02-14T00:36:11;102499.06;;;9.21;63.25
62800;BME280;48842;51.046;13.796;2023-02-14T00:38:36;102497.34;;;9.21;63.22
62800;BME280;48842;51.046;13.796;2023-02-14T00:41:02;102494.81;;;9.23;63.54
62800;BME280;48842;51.046;13.796;2023-02-14T00:43:27;102494.88;;;9.24;63.61
62800;BME280;48842;51.046;13.796;2023-02-14T00:45:53;102490.47;;;9.23;63.18
62800;BME280;48842;51.046;13.796;2023-02-14T00:48:18;102492.25;;;9.24;63.29
62800;BME280;48842;51.046;13.796;2023-02-14T00:50:43;102484.34;;;9.23;63.16
62800;BME280;48842;51.046;13.796;2023-02-14T00:53:10;102482.47;;;9.20;63.44
62800;BME280;48842;51.046;13.796;2023-02-14T00:55:36;102482.47;;;9.20;63.19
62800;BME280;48842;51.046;13.796;2023-02-14T00:58:01;102487.72;;;9.20;63.32
62800;BME280;48842;51.046;13.796;2023-02-14T01:00:26;102481.56;;;9.20;63.09
62800;BME280;48842;51.046;13.796;2023-02-14T01:02:51;102480.63;;;9.18;63.25
62800;BME280;48842;51.046;13.796;2023-02-14T01:05:17;102475.38;;;9.18;63.32
62800;BME280;48842;51.046;13.796;2023-02-14T01:07:42;102483.31;;;9.19;63.41
62800;BME280;48842;51.046;13.796;2023-02-14T01:10:07;102483.31;;;9.19;63.28
62800;BME280;48842;51.046;13.796;2023-02-14T01:12:33;102482.47;;;9.20;63.40
62800;BME280;48842;51.046;13.796;2023-02-14T01:14:58;102476.44;;;9.21;63.43
62800;BME280;48842;51.046;13.796;2023-02-14T01:17:23;102472.09;;;9.22;63.25
62800;BME280;48842;51.046;13.796;2023-02-14T01:19:52;102475.59;;;9.22;63.47
62800;BME280;48842;51.046;13.796;2023-02-14T01:22:17;102473.81;;;9.21;63.24
62800;BME280;48842;51.046;13.796;2023-02-14T01:24:43;102472.03;;;9.20;63.18
62800;BME280;48842;51.046;13.796;2023-02-14T01:27:08;102467.59;;;9.19;63.15
62800;BME280;48842;51.046;13.796;2023-02-14T01:29:35;102470.16;;;9.18;63.29
62800;BME280;48842;51.046;13.796;2023-02-14T01:32:00;102465.81;;;9.18;63.15
62800;BME280;48842;51.046;13.796;2023-02-14T01:34:25;102472.72;;;9.16;63.27
62800;BME280;48842;51.046;13.796;2023-02-14T01:36:50;102461.31;;;9.14;63.23
62800;BME280;48842;51.046;13.796;2023-02-14T01:39:16;102456.06;;;9.14;63.21
62800;BME280;48842;51.046;13.796;2023-02-14T01:41:43;102460.44;;;9.15;63.32
62800;BME280;48842;51.046;13.796;2023-02-14T01:46:42;102453.47;;;9.14;63.35
62800;BME280;48842;51.046;13.796;2023-02-14T01:49:10;102456.06;;;9.14;63.34
62800;BME280;48842;51.046;13.796;2023-02-14T01:51:43;102457.78;;;9.14;63.18
62800;BME280;48842;51.046;13.796;2023-02-14T01:54:09;102456.94;;;9.15;63.21
62800;BME280;48842;51.046;13.796;2023-02-14T01:56:44;102458.69;;;9.14;63.24
62800;BME280;48842;51.046;13.796;2023-02-14T01:59:17;102458.69;;;9.14;63.18
62800;BME280;48842;51.046;13.796;2023-02-14T02:01:44;102455.22;;;9.15;63.33
62800;BME280;48842;51.046;13.796;2023-02-14T02:04:13;102461.38;;;9.16;63.31
62800;BME280;48842;51.046;13.796;2023-02-14T02:06:44;102459.56;;;9.15;63.12
62800;BME280;48842;51.046;13.796;2023-02-14T02:09:17;102459.56;;;9.15;63.15
62800;BME280;48842;51.046;13.796;2023-02-14T02:11:45;102453.47;;;9.14;63.37
62800;BME280;48842;51.046;13.796;2023-02-14T02:14:14;102449.84;;;9.12;63.35
62800;BME280;48842;51.046;13.796;2023-02-14T02:17:00;102449.84;;;9.12;63.60
62800;BME280;48842;51.046;13.796;2023-02-14T02:20:02;102450.69;;;9.11;63.20
62800;BME280;48842;51.046;13.796;2023-02-14T02:23:01;102450.59;;;9.09;63.27
62800;BME280;48842;51.046;13.796;2023-02-14T02:31:29;102449.72;;;9.09;63.43
62800;BME280;48842;51.046;13.796;2023-02-14T02:39:35;102441.06;;;9.10;62.98
62800;BME280;48842;51.046;13.796;2023-02-14T02:42:16;102438.44;;;9.10;63.28
62800;BME280;48842;51.046;13.796;2023-02-14T02:44:51;102436.59;;;9.07;63.38
62800;BME280;48842;51.046;13.796;2023-02-14T02:47:33;102446.16;;;9.07;63.20
62800;BME280;48842;51.046;13.796;2023-02-14T02:55:49;102439.00;;;9.03;63.22
62800;BME280;48842;51.046;13.796;2023-02-14T02:58:51;102430.19;;;9.01;63.30
62800;BME280;48842;51.046;13.796;2023-02-14T03:01:22;102432.91;;;9.02;63.24
62800;BME280;48842;51.046;13.796;2023-02-14T03:03:53;102432.91;;;9.02;63.22
62800;BME280;48842;51.046;13.796;2023-02-14T03:06:39;102422.50;;;9.04;63.49
62800;BME280;48842;51.046;13.796;2023-02-14T03:12:28;102431.16;;;9.03;63.36
62800;BME280;48842;51.046;13.796;2023-02-14T03:15:15;102432.91;;;9.02;63.37
62800;BME280;48842;51.046;13.796;2023-02-14T03:18:06;102431.97;;;9.02;63.44
62800;BME280;48842;51.046;13.796;2023-02-14T03:20:48;102439.81;;;9.02;63.31
62800;BME280;48842;51.046;13.796;2023-02-14T03:23:30;102431.97;;;9.02;63.37
62800;BME280;48842;51.046;13.796;2023-02-14T03:26:12;102434.59;;;9.02;63.45
62800;BME280;48842;51.046;13.796;2023-02-14T03:28:59;102436.31;;;9.01;63.41
62800;BME280;48842;51.046;13.796;2023-02-14T03:31:35;102438.13;;;9.02;63.35
62800;BME280;48842;51.046;13.796;2023-02-14T03:37:02;102426.75;;;9.02;63.40
62800;BME280;48842;51.046;13.796;2023-02-14T03:40:12;102426.75;;;9.02;63.21
62800;BME280;48842;51.046;13.796;2023-02-14T03:42:53;102421.53;;;9.02;63.51
62800;BME280;48842;51.046;13.796;2023-02-14T03:45:31;102426.75;;;9.02;63.32
62800;BME280;48842;51.046;13.796;2023-02-14T03:48:02;102421.44;;;9.00;63.19
62800;BME280;48842;51.046;13.796;2023-02-14T03:50:30;102424.81;;;8.98;63.18
62800;BME280;48842;51.046;13.796;2023-02-14T03:52:57;102422.19;;;8.98;63.26
62800;BME280;48842;51.046;13.796;2023-02-14T03:55:33;102427.44;;;8.98;63.22
62800;BME280;48842;51.046;13.796;2023-02-14T03:58:07;102430.06;;;8.98;62.88
62800;BME280;48842;51.046;13.796;2023-02-14T04:00:37;102430.06;;;8.98;63.21
62800;BME280;48842;51.046;13.796;2023-02-14T04:03:08;102428.28;;;8.97;63.12
62800;BME280;48842;51.046;13.796;2023-02-14T04:05:38;102425.72;;;8.98;62.87
62800;BME280;48842;51.046;13.796;2023-02-14T04:08:08;102436.13;;;8.97;63.22
62800;BME280;48842;51.046;13.796;2023-02-14T04:10:33;102436.06;;;8.95;62.89
62800;BME280;48842;51.046;13.796;2023-02-14T04:12:58;102437.75;;;8.95;62.67
62800;BME280;48842;51.046;13.796;2023-02-14T04:15:24;102430.91;;;8.97;63.03
62800;BME280;48842;51.046;13.796;2023-02-14T04:17:49;102435.28;;;8.98;62.79
62800;BME280;48842;51.046;13.796;2023-02-14T04:20:33;102430.06;;;8.98;62.56
62800;BME280;48842;51.046;13.796;2023-02-14T04:22:58;102426.63;;;8.99;62.61
62800;BME280;48842;51.046;13.796;2023-02-14T04:25:24;102426.63;;;8.99;62.66
62800;BME280;48842;51.046;13.796;2023-02-14T04:27:49;102418.78;;;8.99;62.45
62800;BME280;48842;51.046;13.796;2023-02-14T04:30:15;102425.72;;;8.98;62.45
62800;BME280;48842;51.046;13.796;2023-02-14T04:32:42;102413.56;;;8.99;62.44
62800;BME280;48842;51.046;13.796;2023-02-14T04:35:08;102409.00;;;8.95;62.48
62800;BME280;48842;51.046;13.796;2023-02-14T04:37:33;102420.31;;;8.94;62.79
62800;BME280;48842;51.046;13.796;2023-02-14T04:39:58;102412.47;;;8.94;62.24
62800;BME280;48842;51.046;13.796;2023-02-14T04:42:24;102409.84;;;8.94;62.50
62800;BME280;48842;51.046;13.796;2023-02-14T04:44:49;102415.09;;;8.94;62.45
62800;BME280;48842;51.046;13.796;2023-02-14T04:47:14;102411.56;;;8.93;62.45
62800;BME280;48842;51.046;13.796;2023-02-14T04:49:39;102407.25;;;8.94;62.57
62800;BME280;48842;51.046;13.796;2023-02-14T04:52:05;102408.94;;;8.93;62.51
62800;BME280;48842;51.046;13.796;2023-02-14T04:54:31;102408.13;;;8.94;62.45
62800;BME280;48842;51.046;13.796;2023-02-14T04:56:56;102402.91;;;8.94;62.37
62800;BME280;48842;51.046;13.796;2023-02-14T04:59:22;102399.41;;;8.94;62.49
62800;BME280;48842;51.046;13.796;2023-02-14T05:01:47;102397.59;;;8.93;62.49
62800;BME280;48842;51.046;13.796;2023-02-14T05:04:12;102395.00;;;8.93;62.44
62800;BME280;48842;51.046;13.796;2023-02-14T05:06:38;102405.44;;;8.93;62.19
62800;BME280;48842;51.046;13.796;2023-02-14T05:09:03;102401.03;;;8.91;62.34
62800;BME280;48842;51.046;13.796;2023-02-14T05:11:28;102401.84;;;8.90;62.56
62800;BME280;48842;51.046;13.796;2023-02-14T05:13:54;102400.97;;;8.90;62.35
62800;BME280;48842;51.046;13.796;2023-02-14T05:16:20;102401.84;;;8.90;62.54
62800;BME280;48842;51.046;13.796;2023-02-14T05:18:45;102406.25;;;8.91;62.46
62800;BME280;48842;51.046;13.796;2023-02-14T05:21:10;102401.84;;;8.90;62.29
62800;BME280;48842;51.046;13.796;2023-02-14T05:23:36;102401.03;;;8.91;62.71
62800;BME280;48842;51.046;13.796;2023-02-14T05:26:01;102395.75;;;8.90;62.36
62800;BME280;48842;51.046;13.796;2023-02-14T05:28:26;102396.63;;;8.90;62.41
62800;BME280;48842;51.046;13.796;2023-02-14T05:30:51;102389.63;;;8.89;62.21
62800;BME280;48842;51.046;13.796;2023-02-14T05:33:17;102400.09;;;8.89;62.19
62800;BME280;48842;51.046;13.796;2023-02-14T05:35:43;102396.56;;;8.89;61.99
62800;BME280;48842;51.046;13.796;2023-02-14T05:38:08;102397.34;;;8.86;61.03
62800;BME280;48842;51.046;13.796;2023-02-14T05:40:33;102402.50;;;8.85;61.27
62800;BME280;48842;51.046;13.796;2023-02-14T05:42:59;102397.28;;;8.85;61.01
62800;BME280;48842;51.046;13.796;2023-02-14T05:45:24;102406.00;;;8.85;61.40
62800;BME280;48842;51.046;13.796;2023-02-14T05:47:50;102389.50;;;8.86;61.44
62800;BME280;48842;51.046;13.796;2023-02-14T05:50:16;102384.28;;;8.86;61.59
62800;BME280;48842;51.046;13.796;2023-02-14T05:52:42;102388.56;;;8.86;61.58
62800;BME280;48842;51.046;13.796;2023-02-14T05:55:08;102391.94;;;8.83;62.01
62800;BME280;48842;51.046;13.796;2023-02-14T05:57:33;102391.88;;;8.82;61.72
62800;BME280;48842;51.046;13.796;2023-02-14T05:59:59;102390.09;;;8.81;61.72
62800;BME280;48842;51.046;13.796;2023-02-14T06:02:24;102392.78;;;8.82;61.92
62800;BME280;48842;51.046;13.796;2023-02-14T06:04:49;102390.25;;;8.84;61.36
62800;BME280;48842;51.046;13.796;2023-02-14T06:07:15;102392.03;;;8.85;61.01
62800;BME280;48842;51.046;13.796;2023-02-14T06:09:40;102400.75;;;8.85;60.70
62800;BME280;48842;51.046;13.796;2023-02-14T06:12:06;102397.34;;;8.86;60.69
62800;BME280;48842;51.046;13.796;2023-02-14T06:14:31;102390.44;;;8.88;60.60
62800;BME280;48842;51.046;13.796;2023-02-14T06:16:56;102402.63;;;8.88;60.26
62800;BME280;48842;51.046;13.796;2023-02-14T06:19:22;102391.25;;;8.87;60.43
62800;BME280;48842;51.046;13.796;2023-02-14T06:21:47;102398.22;;;8.87;60.68
62800;BME280;48842;51.046;13.796;2023-02-14T06:24:12;102397.41;;;8.88;60.72
62800;BME280;48842;51.046;13.796;2023-02-14T06:26:38;102392.09;;;8.86;59.71
62800;BME280;48842;51.046;13.796;2023-02-14T06:29:03;102394.72;;;8.86;59.78
62800;BME280;48842;51.046;13.796;2023-02-14T06:31:28;102395.47;;;8.84;59.63
62800;BME280;48842;51.046;13.796;2023-02-14T06:33:54;102396.28;;;8.83;59.17
62800;BME280;48842;51.046;13.796;2023-02-14T06:36:20;102405.78;;;8.81;59.22
62800;BME280;48842;51.046;13.796;2023-02-14T06:38:46;102408.34;;;8.79;58.96
62800;BME280;48842;51.046;13.796;2023-02-14T06:41:12;102410.09;;;8.80;59.13
62800;BME280;48842;51.046;13.796;2023-02-14T06:43:39;102407.56;;;8.82;59.65
62800;BME280;48842;51.046;13.796;2023-02-14T06:46:04;102408.47;;;8.82;59.78
62800;BME280;48842;51.046;13.796;2023-02-14T06:48:29;102410.22;;;8.83;60.04
62800;BME280;48842;51.046;13.796;2023-02-14T06:50:55;102418.06;;;8.83;60.24
62800;BME280;48842;51.046;13.796;2023-02-14T06:53:21;102409.41;;;8.84;60.16
62800;BME280;48842;51.046;13.796;2023-02-14T06:55:46;102419.06;;;8.85;60.01
62800;BME280;48842;51.046;13.796;2023-02-14T06:58:12;102409.50;;;8.86;60.14
62800;BME280;48842;51.046;13.796;2023-02-14T07:00:37;102415.63;;;8.86;60.02
62800;BME280;48842;51.046;13.796;2023-02-14T07:03:04;102408.75;;;8.88;59.99
62800;BME280;48842;51.046;13.796;2023-02-14T07:05:30;102408.75;;;8.88;60.07
62800;BME280;48842;51.046;13.796;2023-02-14T07:07:55;102410.53;;;8.89;60.20
62800;BME280;48842;51.046;13.796;2023-02-14T07:10:21;102405.44;;;8.93;60.45
62800;BME280;48842;51.046;13.796;2023-02-14T07:12:46;102402.00;;;8.94;60.30
62800;BME280;48842;51.046;13.796;2023-02-14T07:15:14;102406.38;;;8.95;60.16
62800;BME280;48842;51.046;13.796;2023-02-14T07:17:39;102403.84;;;8.96;60.26
62800;BME280;48842;51.046;13.796;2023-02-14T07:20:05;102409.13;;;8.98;60.05
62800;BME280;48842;51.046;13.796;2023-02-14T07:22:32;102405.69;;;8.99;60.17
62800;BME280;48842;51.046;13.796;2023-02-14T07:24:57;102403.16;;;9.00;60.04
62800;BME280;48842;51.046;13.796;2023-02-14T07:27:23;102407.63;;;9.03;59.69
62800;BME280;48842;51.046;13.796;2023-02-14T07:29:48;102407.75;;;9.06;59.75
62800;BME280;48842;51.046;13.796;2023-02-14T07:32:13;102403.41;;;9.06;59.57
62800;BME280;48842;51.046;13.796;2023-02-14T07:34:38;102405.16;;;9.06;59.17
62800;BME280;48842;51.046;13.796;2023-02-14T07:37:04;102402.53;;;9.06;58.90
62800;BME280;48842;51.046;13.796;2023-02-14T07:39:29;102410.44;;;9.07;58.66
62800;BME280;48842;51.046;13.796;2023-02-14T07:41:54;102400.00;;;9.07;58.79
62800;BME280;48842;51.046;13.796;2023-02-14T07:44:19;102398.19;;;9.06;58.54
62800;BME280;48842;51.046;13.796;2023-02-14T07:46:45;102397.38;;;9.07;58.35
62800;BME280;48842;51.046;13.796;2023-02-14T07:49:10;102399.38;;;9.13;58.32
62800;BME280;48842;51.046;13.796;2023-02-14T07:51:36;102394.13;;;9.13;58.09
62800;BME280;48842;51.046;13.796;2023-02-14T07:54:02;102393.31;;;9.14;58.08
62800;BME280;48842;51.046;13.796;2023-02-14T07:56:27;102397.81;;;9.18;57.97
62800;BME280;48842;51.046;13.796;2023-02-14T07:58:53;102404.09;;;9.22;58.11
62800;BME280;48842;51.046;13.796;2023-02-14T08:01:18;102397.19;;;9.24;57.88
62800;BME280;48842;51.046;13.796;2023-02-14T08:03:45;102401.53;;;9.23;57.93
62800;BME280;48842;51.046;13.796;2023-02-14T08:06:13;102397.25;;;9.25;57.53
62800;BME280;48842;51.046;13.796;2023-02-14T08:08:39;102394.72;;;9.27;57.54
62800;BME280;48842;51.046;13.796;2023-02-14T08:11:04;102390.53;;;9.31;57.45
62800;BME280;48842;51.046;13.796;2023-02-14T08:13:29;102387.09;;;9.32;56.99
62800;BME280;48842;51.046;13.796;2023-02-14T08:15:54;102393.13;;;9.31;57.05
62800;BME280;48842;51.046;13.796;2023-02-14T08:18:31;102400.00;;;9.29;57.08
62800;BME280;48842;51.046;13.796;2023-02-14T08:20:56;102399.88;;;9.25;56.75
62800;BME280;48842;51.046;13.796;2023-02-14T08:23:21;102404.84;;;9.19;56.50
62800;BME280;48842;51.046;13.796;2023-02-14T08:25:48;102401.00;;;9.11;56.38
62800;BME280;48842;51.046;13.796;2023-02-14T08:28:14;102402.66;;;9.09;56.58
62800;BME280;48842;51.046;13.796;2023-02-14T08:30:40;102401.91;;;9.12;56.61
62800;BME280;48842;51.046;13.796;2023-02-14T08:33:06;102415.06;;;9.13;56.51
62800;BME280;48842;51.046;13.796;2023-02-14T08:35:31;102419.47;;;9.14;56.52
62800;BME280;48842;51.046;13.796;2023-02-14T08:37:57;102422.22;;;9.17;56.53
62800;BME280;48842;51.046;13.796;2023-02-14T08:40:23;102408.34;;;9.20;56.44
62800;BME280;48842;51.046;13.796;2023-02-14T08:42:48;102415.25;;;9.18;56.34
62800;BME280;48842;51.046;13.796;2023-02-14T08:45:13;102416.06;;;9.17;56.22
62800;BME280;48842;51.046;13.796;2023-02-14T08:47:39;102410.09;;;9.19;56.42
62800;BME280;48842;51.046;13.796;2023-02-14T08:50:07;102413.75;;;9.23;56.27
62800;BME280;48842;51.046;13.796;2023-02-14T08:52:34;102413.03;;;9.27;56.34
62800;BME280;48842;51.046;13.796;2023-02-14T08:54:59;102413.25;;;9.32;56.27
62800;BME280;48842;51.046;13.796;2023-02-14T08:57:26;102417.69;;;9.34;55.96
62800;BME280;48842;51.046;13.796;2023-02-14T08:59:52;102408.16;;;9.35;55.82
62800;BME280;48842;51.046;13.796;2023-02-14T09:02:17;102406.34;;;9.34;55.94
62800;BME280;48842;51.046;13.796;2023-02-14T09:04:43;102411.50;;;9.32;56.20
62800;BME280;48842;51.046;13.796;2023-02-14T09:07:10;102413.25;;;9.32;55.99
62800;BME280;48842;51.046;13.796;2023-02-14T09:09:36;102410.75;;;9.35;56.21
62800;BME280;48842;51.046;13.796;2023-02-14T09:12:05;102409.28;;;9.41;56.38
62800;BME280;48842;51.046;13.796;2023-02-14T09:14:42;102413.06;;;9.48;56.04
62800;BME280;48842;51.046;13.796;2023-02-14T09:17:09;102409.81;;;9.54;55.85
62800;BME280;48842;51.046;13.796;2023-02-14T09:19:35;102416.13;;;9.59;55.94
62800;BME280;48842;51.046;13.796;2023-02-14T09:22:02;102413.69;;;9.64;55.75
62800;BME280;48842;51.046;13.796;2023-02-14T09:24:31;102425.19;;;9.67;55.96
62800;BME280;48842;51.046;13.796;2023-02-14T09:26:58;102420.97;;;9.71;55.73
62800;BME280;48842;51.046;13.796;2023-02-14T09:29:24;102415.88;;;9.74;55.82
62800;BME280;48842;51.046;13.796;2023-02-14T09:31:58;102417.72;;;9.76;55.67
62800;BME280;48842;51.046;13.796;2023-02-14T09:34:24;102421.38;;;9.80;55.73
62800;BME280;48842;51.046;13.796;2023-02-14T09:36:50;102416.13;;;9.80;55.30
62800;BME280;48842;51.046;13.796;2023-02-14T09:39:35;102413.56;;;9.82;55.63
62800;BME280;48842;51.046;13.796;2023-02-14T09:42:15;102420.56;;;9.83;55.47
62800;BME280;48842;51.046;13.796;2023-02-14T09:44:49;102420.72;;;9.86;55.69
62800;BME280;48842;51.046;13.796;2023-02-14T09:47:36;102423.41;;;9.87;55.16
62800;BME280;48842;51.046;13.796;2023-02-14T09:50:09;102418.22;;;9.89;55.32
62800;BME280;48842;51.046;13.796;2023-02-14T09:52:37;102427.78;;;9.88;55.31
62800;BME280;48842;51.046;13.796;2023-02-14T09:55:02;102426.06;;;9.89;55.25
62800;BME280;48842;51.046;13.796;2023-02-14T09:58:03;102432.19;;;9.89;54.84
62800;BME280;48842;51.046;13.796;2023-02-14T10:00:47;102420.06;;;9.91;55.12
62800;BME280;48842;51.046;13.796;2023-02-14T10:03:31;102425.38;;;9.93;55.05
62800;BME280;48842;51.046;13.796;2023-02-14T10:06:06;102423.66;;;9.93;55.06
62800;BME280;48842;51.046;13.796;2023-02-14T10:08:49;102427.19;;;9.95;55.05
62800;BME280;48842;51.046;13.796;2023-02-14T10:11:22;102428.25;;;9.99;54.99
62800;BME280;48842;51.046;13.796;2023-02-14T10:13:58;102422.09;;;9.99;54.66
62800;BME280;48842;51.046;13.796;2023-02-14T10:16:28;102428.94;;;9.95;54.40
62800;BME280;48842;51.046;13.796;2023-02-14T10:18:59;102420.72;;;9.86;54.59
62800;BME280;48842;51.046;13.796;2023-02-14T10:21:38;102418.03;;;9.84;54.83
62800;BME280;48842;51.046;13.796;2023-02-14T10:24:28;102412.81;;;9.84;54.59
62800;BME280;48842;51.046;13.796;2023-02-14T10:27:02;102413.69;;;9.85;54.81
62800;BME280;48842;51.046;13.796;2023-02-14T10:29:29;102412.94;;;9.87;55.10
62800;BME280;48842;51.046;13.796;2023-02-14T10:32:02;102406.03;;;9.89;54.93
62800;BME280;48842;51.046;13.796;2023-02-14T10:34:47;102414.97;;;9.94;55.02
62800;BME280;48842;51.046;13.796;2023-02-14T10:37:37;102410.78;;;10.00;54.84
62800;BME280;48842;51.046;13.796;2023-02-14T10:40:22;102420.56;;;10.04;54.59
62800;BME280;48842;51.046;13.796;2023-02-14T10:42:59;102417.13;;;10.05;54.93
62800;BME280;48842;51.046;13.796;2023-02-14T10:45:37;102411.09;;;10.07;54.60
62800;BME280;48842;51.046;13.796;2023-02-14T10:51:08;102406.94;;;10.12;54.75
62800;BME280;48842;51.046;13.796;2023-02-14T10:54:04;102399.97;;;10.13;54.62
62800;BME280;48842;51.046;13.796;2023-02-14T10:56:37;102412.34;;;10.17;54.82
62800;BME280;48842;51.046;13.796;2023-02-14T11:01:40;102405.59;;;10.22;54.55
62800;BME280;48842;51.046;13.796;2023-02-14T11:04:06;102398.66;;;10.24;54.44
62800;BME280;48842;51.046;13.796;2023-02-14T11:06:35;102408.31;;;10.25;54.04
62800;BME280;48842;51.046;13.796;2023-02-14T11:09:01;102405.81;;;10.28;54.31
62800;BME280;48842;51.046;13.796;2023-02-14T11:11:40;102405.09;;;10.33;53.97
62800;BME280;48842;51.046;13.796;2023-02-14T11:14:28;102399.03;;;10.34;53.84
62800;BME280;48842;51.046;13.796;2023-02-14T11:16:55;102399.88;;;10.33;54.04
62800;BME280;48842;51.046;13.796;2023-02-14T11:19:24;102401.53;;;10.30;54.13
62800;BME280;48842;51.046;13.796;2023-02-14T11:21:51;102388.41;;;10.30;53.87
62800;BME280;48842;51.046;13.796;2023-02-14T11:24:33;102389.41;;;10.33;54.16
62800;BME280;48842;51.046;13.796;2023-02-14T11:27:02;102393.94;;;10.37;53.94
62800;BME280;48842;51.046;13.796;2023-02-14T11:34:46;102387.25;;;10.45;53.59
62800;BME280;48842;51.046;13.796;2023-02-14T11:39:41;102387.47;;;10.51;53.45
62800;BME280;48842;51.046;13.796;2023-02-14T11:42:11;102383.09;;;10.50;53.12
62800;BME280;48842;51.046;13.796;2023-02-14T11:44:36;102375.06;;;10.45;53.22
62800;BME280;48842;51.046;13.796;2023-02-14T11:47:29;102385.34;;;10.41;53.19
62800;BME280;48842;51.046;13.796;2023-02-14T11:49:59;102368.75;;;10.40;53.33
62800;BME280;48842;51.046;13.796;2023-02-14T11:52:30;102378.41;;;10.41;53.19
62800;BME280;48842;51.046;13.796;2023-02-14T11:54:56;102384.47;;;10.40;53.32
62800;BME280;48842;51.046;13.796;2023-02-14T11:57:33;102373.88;;;10.37;53.01
62800;BME280;48842;51.046;13.796;2023-02-14T12:00:03;102369.63;;;10.41;53.15
62800;BME280;48842;51.046;13.796;2023-02-14T12:02:38;102361.78;;;10.41;53.20
62800;BME280;48842;51.046;13.796;2023-02-14T12:05:16;102358.44;;;10.45;52.88
62800;BME280;48842;51.046;13.796;2023-02-14T12:07:45;102358.50;;;10.46;53.22
62800;BME280;48842;51.046;13.796;2023-02-14T12:15:28;102350.03;;;10.54;52.54
62800;BME280;48842;51.046;13.796;2023-02-14T12:20:43;102339.53;;;10.54;52.50
62800;BME280;48842;51.046;13.796;2023-02-14T12:23:38;102342.22;;;10.55;52.36
62800;BME280;48842;51.046;13.796;2023-02-14T12:26:21;102333.53;;;10.56;52.63
62800;BME280;48842;51.046;13.796;2023-02-14T12:28:56;102338.06;;;10.60;52.62
62800;BME280;48842;51.046;13.796;2023-02-14T12:31:24;102335.44;;;10.60;52.34
62800;BME280;48842;51.046;13.796;2023-02-14T12:33:49;102332.81;;;10.60;52.29
62800;BME280;48842;51.046;13.796;2023-02-14T12:36:28;102327.66;;;10.63;52.03
62800;BME280;48842;51.046;13.796;2023-02-14T12:39:22;102324.94;;;10.60;51.74
62800;BME280;48842;51.046;13.796;2023-02-14T12:44:57;102315.13;;;10.55;50.49
62800;BME280;48842;51.046;13.796;2023-02-14T12:50:22;102307.22;;;10.53;51.59
62800;BME280;48842;51.046;13.796;2023-02-14T12:53:41;102308.19;;;10.57;51.51
62800;BME280;48842;51.046;13.796;2023-02-14T12:55:59;102299.66;;;10.62;51.77
62800;BME280;48842;51.046;13.796;2023-02-14T12:58:39;102297.00;;;10.61;51.17
62800;BME280;48842;51.046;13.796;2023-02-14T13:01:34;102294.44;;;10.62;51.43
62800;BME280;48842;51.046;13.796;2023-02-14T13:04:25;102298.03;;;10.64;50.93
62800;BME280;48842;51.046;13.796;2023-02-14T13:07:07;102289.34;;;10.67;51.45
62800;BME280;48842;51.046;13.796;2023-02-14T13:09:57;102291.25;;;10.71;51.00
62800;BME280;48842;51.046;13.796;2023-02-14T13:15:02;102282.66;;;10.75;50.85
62800;BME280;48842;51.046;13.796;2023-02-14T13:17:39;102280.09;;;10.77;51.04
62800;BME280;48842;51.046;13.796;2023-02-14T13:22:55;102284.34;;;10.73;51.20
62800;BME280;48842;51.046;13.796;2023-02-14T13:25:27;102279.00;;;10.72;50.66
62800;BME280;48842;51.046;13.796;2023-02-14T13:28:01;102272.75;;;10.67;51.06
62800;BME280;48842;51.046;13.796;2023-02-14T13:30:32;102271.66;;;10.61;50.92
62800;BME280;48842;51.046;13.796;2023-02-14T13:33:06;102271.66;;;10.61;51.16
62800;BME280;48842;51.046;13.796;2023-02-14T13:35:33;102266.47;;;10.63;51.01
62800;BME280;48842;51.046;13.796;2023-02-14T13:38:05;102265.75;;;10.67;51.05
62800;BME280;48842;51.046;13.796;2023-02-14T13:40:33;102256.44;;;10.75;51.08
62800;BME280;48842;51.046;13.796;2023-02-14T13:43:00;102267.19;;;10.83;50.83
62800;BME280;48842;51.046;13.796;2023-02-14T13:50:36;102252.81;;;10.97;50.91
62800;BME280;48842;51.046;13.796;2023-02-14T13:53:02;102256.41;;;10.99;50.59
62800;BME280;48842;51.046;13.796;2023-02-14T13:55:33;102252.03;;;11.00;51.05
62800;BME280;48842;51.046;13.796;2023-02-14T13:58:18;102246.88;;;11.03;50.85
62800;BME280;48842;51.046;13.796;2023-02-14T14:00:46;102246.09;;;11.06;50.74
62800;BME280;48842;51.046;13.796;2023-02-14T14:03:15;102243.44;;;11.04;50.76
62800;BME280;48842;51.046;13.796;2023-02-14T14:06:03;102252.91;;;11.00;51.00
62800;BME280;48842;51.046;13.796;2023-02-14T14:10:59;102257.13;;;10.95;51.01